sensor_id;sensor_type;location;lat;lon;timestamp;pressure;altitude;pressure_sealevel;temperature;humidity
28626;BME280;18905;42.668;23.364;2023-03-04T00:02:01;95146.03;;;6.65;100.00
28626;BME280;18905;42.668;23.364;2023-03-04T00:04:26;95143.25;;;6.75;100.00
28626;BME280;18905;42.668;23.364;2023-03-04T00:06:52;95146.00;;;7.02;100.00
28626;BME280;18905;42.668;23.364;2023-03-04T00:09:17;95101.81;;;6.62;100.00
28626;BME280;18905;42.668;23.364;2023-03-04T00:11:43;95120.50;;;6.86;100.00
28626;BME280;18905;42.668;23.364;2023-03-04T00:14:09;95126.34;;;7.06;100.00
28626;BME280;18905;42.668;23.364;2023-03-04T00:16:34;95106.06;;;6.82;100.00
28626;BME280;18905;42.668;23.364;2023-03-04T00:19:00;95127.91;;;7.07;100.00
28626;BME280;18905;42.668;23.364;2023-03-04T00:21:25;95108.22;;;6.98;100.00
28626;BME280;18905;42.668;23.364;2023-03-04T00:23:50;95092.72;;;6.95;100.00
28626;BME280;18905;42.668;23.364;2023-03-04T00:26:16;95119.81;;;7.26;100.00
28626;BME280;18905;42.668;23.364;2023-03-04T00:28:42;95114.31;;;7.17;100.00
28626;BME280;18905;42.668;23.364;2023-03-04T00:31:08;95121.03;;;7.33;100.00
28626;BME280;18905;42.668;23.364;2023-03-04T00:33:34;95111.69;;;7.44;100.00
28626;BME280;18905;42.668;23.364;2023-03-04T00:36:00;95113.50;;;7.49;100.00
28626;BME280;18905;42.668;23.364;2023-03-04T00:38:26;95117.94;;;7.53;100.00
28626;BME280;18905;42.668;23.364;2023-03-04T00:40:51;95115.78;;;7.55;100.00
28626;BME280;18905;42.668;23.364;2023-03-04T00:43:17;95099.03;;;7.31;100.00
28626;BME280;18905;42.668;23.364;2023-03-04T00:45:42;95104.44;;;7.45;100.00
28626;BME280;18905;42.668;23.364;2023-03-04T00:48:08;95114.50;;;7.53;100.00
28626;BME280;18905;42.668;23.364;2023-03-04T00:50:33;95114.88;;;7.01;100.00
28626;BME280;18905;42.668;23.364;2023-03-04T00:52:59;95115.31;;;6.76;100.00
28626;BME280;18905;42.668;23.364;2023-03-04T00:55:24;95115.03;;;6.59;100.00
28626;BME280;18905;42.668;23.364;2023-03-04T00:57:49;95116.31;;;6.80;100.00
28626;BME280;18905;42.668;23.364;2023-03-04T01:00:15;95113.28;;;6.68;100.00
28626;BME280;18905;42.668;23.364;2023-03-04T01:02:41;95114.09;;;6.13;100.00
28626;BME280;18905;42.668;23.364;2023-03-04T01:05:07;95103.66;;;6.11;100.00
28626;BME280;18905;42.668;23.364;2023-03-04T01:07:33;95115.75;;;6.09;100.00
28626;BME280;18905;42.668;23.364;2023-03-04T01:09:58;95123.66;;;6.37;100.00
28626;BME280;18905;42.668;23.364;2023-03-04T01:12:23;95117.84;;;6.67;100.00
28626;BME280;18905;42.668;23.364;2023-03-04T01:14:49;95107.81;;;6.73;100.00
28626;BME280;18905;42.668;23.364;2023-03-04T01:17:14;95096.59;;;6.71;100.00
28626;BME280;18905;42.668;23.364;2023-03-04T01:19:40;95087.75;;;6.70;100.00
28626;BME280;18905;42.668;23.364;2023-03-04T01:22:05;95098.13;;;6.90;100.00
28626;BME280;18905;42.668;23.364;2023-03-04T01:24:31;95086.16;;;6.69;100.00
28626;BME280;18905;42.668;23.364;2023-03-04T01:26:56;95094.84;;;6.80;100.00
28626;BME280;18905;42.668;23.364;2023-03-04T01:29:21;95082.66;;;7.01;100.00
28626;BME280;18905;42.668;23.364;2023-03-04T01:31:47;95091.94;;;6.26;100.00
28626;BME280;18905;42.668;23.364;2023-03-04T01:34:12;95074.75;;;6.27;100.00
28626;BME280;18905;42.668;23.364;2023-03-04T01:36:38;95096.75;;;6.61;100.00
28626;BME280;18905;42.668;23.364;2023-03-04T01:39:03;95051.72;;;6.26;100.00
28626;BME280;18905;42.668;23.364;2023-03-04T01:41:29;95086.91;;;6.38;100.00
28626;BME280;18905;42.668;23.364;2023-03-04T01:43:56;95080.66;;;6.61;100.00
28626;BME280;18905;42.668;23.364;2023-03-04T01:46:22;95055.44;;;6.62;100.00
28626;BME280;18905;42.668;23.364;2023-03-04T01:48:48;95073.19;;;6.90;100.00
28626;BME280;18905;42.668;23.364;2023-03-04T01:51:15;95054.06;;;6.78;100.00
28626;BME280;18905;42.668;23.364;2023-03-04T01:53:42;95075.25;;;6.79;100.00
28626;BME280;18905;42.668;23.364;2023-03-04T01:59:08;95068.03;;;6.93;100.00
28626;BME280;18905;42.668;23.364;2023-03-04T02:01:34;95070.81;;;7.02;100.00
28626;BME280;18905;42.668;23.364;2023-03-04T02:04:00;95054.59;;;6.93;100.00
28626;BME280;18905;42.668;23.364;2023-03-04T02:06:26;95063.66;;;6.33;100.00
28626;BME280;18905;42.668;23.364;2023-03-04T02:08:52;95070.75;;;6.43;100.00
28626;BME280;18905;42.668;23.364;2023-03-04T02:11:17;95069.41;;;6.59;100.00
28626;BME280;18905;42.668;23.364;2023-03-04T02:13:43;95069.16;;;6.74;100.00
28626;BME280;18905;42.668;23.364;2023-03-04T02:16:08;95039.34;;;6.75;100.00
28626;BME280;18905;42.668;23.364;2023-03-04T02:18:34;95069.53;;;6.99;100.00
28626;BME280;18905;42.668;23.364;2023-03-04T02:21:14;95046.75;;;6.97;100.00
28626;BME280;18905;42.668;23.364;2023-03-04T02:26:46;95064.72;;;6.51;100.00
28626;BME280;18905;42.668;23.364;2023-03-04T02:29:13;95061.03;;;6.47;100.00
28626;BME280;18905;42.668;23.364;2023-03-04T02:31:42;95055.19;;;6.58;100.00
28626;BME280;18905;42.668;23.364;2023-03-04T02:34:12;95067.56;;;6.41;100.00
28626;BME280;18905;42.668;23.364;2023-03-04T02:36:39;95062.63;;;6.48;100.00
28626;BME280;18905;42.668;23.364;2023-03-04T02:39:31;95044.28;;;6.55;100.00
28626;BME280;18905;42.668;23.364;2023-03-04T02:41:56;95040.50;;;6.56;100.00
28626;BME280;18905;42.668;23.364;2023-03-04T02:44:22;95057.81;;;6.13;100.00
28626;BME280;18905;42.668;23.364;2023-03-04T02:46:49;95047.38;;;6.30;100.00
28626;BME280;18905;42.668;23.364;2023-03-04T02:49:16;95062.28;;;6.36;100.00
28626;BME280;18905;42.668;23.364;2023-03-04T02:51:42;95048.88;;;5.80;100.00
28626;BME280;18905;42.668;23.364;2023-03-04T02:54:19;95054.88;;;6.28;100.00
28626;BME280;18905;42.668;23.364;2023-03-04T02:56:50;95043.06;;;6.47;100.00
28626;BME280;18905;42.668;23.364;2023-03-04T02:59:16;95049.47;;;6.65;100.00
28626;BME280;18905;42.668;23.364;2023-03-04T03:01:42;95046.69;;;6.70;100.00
28626;BME280;18905;42.668;23.364;2023-03-04T03:04:08;95049.13;;;6.85;100.00
28626;BME280;18905;42.668;23.364;2023-03-04T03:06:33;95049.03;;;6.90;100.00
28626;BME280;18905;42.668;23.364;2023-03-04T03:08:59;95034.19;;;6.79;100.00
28626;BME280;18905;42.668;23.364;2023-03-04T03:11:24;95029.84;;;6.83;100.00
28626;BME280;18905;42.668;23.364;2023-03-04T03:13:50;95051.06;;;6.98;100.00
28626;BME280;18905;42.668;23.364;2023-03-04T03:16:15;95056.03;;;7.04;100.00
28626;BME280;18905;42.668;23.364;2023-03-04T03:18:40;95045.59;;;7.03;100.00
28626;BME280;18905;42.668;23.364;2023-03-04T03:21:06;95047.19;;;7.04;100.00
28626;BME280;18905;42.668;23.364;2023-03-04T03:23:32;95027.47;;;6.95;100.00
28626;BME280;18905;42.668;23.364;2023-03-04T03:25:57;95053.66;;;7.03;100.00
28626;BME280;18905;42.668;23.364;2023-03-04T03:28:23;95049.06;;;7.03;100.00
28626;BME280;18905;42.668;23.364;2023-03-04T03:30:48;95038.69;;;6.97;100.00
28626;BME280;18905;42.668;23.364;2023-03-04T03:33:14;95019.63;;;6.85;100.00
28626;BME280;18905;42.668;23.364;2023-03-04T03:35:39;95040.47;;;6.88;100.00
28626;BME280;18905;42.668;23.364;2023-03-04T03:38:05;95049.81;;;6.90;100.00
28626;BME280;18905;42.668;23.364;2023-03-04T03:40:30;95048.44;;;6.93;100.00
28626;BME280;18905;42.668;23.364;2023-03-04T03:42:56;95013.25;;;6.81;100.00
28626;BME280;18905;42.668;23.364;2023-03-04T03:45:21;95014.03;;;6.81;100.00
28626;BME280;18905;42.668;23.364;2023-03-04T03:47:46;95034.03;;;6.89;100.00
28626;BME280;18905;42.668;23.364;2023-03-04T03:50:12;95010.22;;;6.69;100.00
28626;BME280;18905;42.668;23.364;2023-03-04T03:52:37;95018.88;;;6.66;100.00
28626;BME280;18905;42.668;23.364;2023-03-04T03:55:03;95004.56;;;6.57;100.00
28626;BME280;18905;42.668;23.364;2023-03-04T03:57:28;95037.66;;;6.66;100.00
28626;BME280;18905;42.668;23.364;2023-03-04T03:59:54;95031.28;;;6.62;100.00
28626;BME280;18905;42.668;23.364;2023-03-04T04:02:20;95022.72;;;6.60;100.00
28626;BME280;18905;42.668;23.364;2023-03-04T04:04:46;95033.44;;;6.60;100.00
28626;BME280;18905;42.668;23.364;2023-03-04T04:07:12;95025.41;;;6.60;100.00
28626;BME280;18905;42.668;23.364;2023-03-04T04:09:37;95001.31;;;6.41;100.00
28626;BME280;18905;42.668;23.364;2023-03-04T04:12:04;95026.59;;;6.54;100.00
28626;BME280;18905;42.668;23.364;2023-03-04T04:14:30;95011.75;;;6.43;100.00
28626;BME280;18905;42.668;23.364;2023-03-04T04:16:55;95020.28;;;6.45;100.00
28626;BME280;18905;42.668;23.364;2023-03-04T04:19:21;95024.06;;;6.44;100.00
28626;BME280;18905;42.668;23.364;2023-03-04T04:21:46;95017.25;;;6.33;100.00
28626;BME280;18905;42.668;23.364;2023-03-04T04:24:12;95018.00;;;6.38;100.00
28626;BME280;18905;42.668;23.364;2023-03-04T04:26:37;94992.09;;;6.15;100.00
28626;BME280;18905;42.668;23.364;2023-03-04T04:29:03;95007.22;;;6.25;100.00
28626;BME280;18905;42.668;23.364;2023-03-04T04:31:28;95013.28;;;6.30;100.00
28626;BME280;18905;42.668;23.364;2023-03-04T04:33:53;95026.94;;;6.34;100.00
28626;BME280;18905;42.668;23.364;2023-03-04T04:36:19;95021.31;;;6.30;100.00
28626;BME280;18905;42.668;23.364;2023-03-04T04:38:44;94997.25;;;6.12;100.00
28626;BME280;18905;42.668;23.364;2023-03-04T04:41:18;95004.47;;;6.11;100.00
28626;BME280;18905;42.668;23.364;2023-03-04T04:43:44;95005.28;;;6.12;100.00
28626;BME280;18905;42.668;23.364;2023-03-04T04:46:09;95004.19;;;6.13;100.00
28626;BME280;18905;42.668;23.364;2023-03-04T04:48:35;95026.78;;;6.25;100.00
28626;BME280;18905;42.668;23.364;2023-03-04T04:51:00;95023.59;;;6.23;100.00
28626;BME280;18905;42.668;23.364;2023-03-04T04:53:26;95021.78;;;6.19;100.00
28626;BME280;18905;42.668;23.364;2023-03-04T04:55:51;95034.97;;;6.15;100.00
28626;BME280;18905;42.668;23.364;2023-03-04T04:58:16;95033.22;;;6.24;100.00
28626;BME280;18905;42.668;23.364;2023-03-04T05:00:42;95035.53;;;6.12;100.00
28626;BME280;18905;42.668;23.364;2023-03-04T05:03:07;95010.28;;;6.00;100.00
28626;BME280;18905;42.668;23.364;2023-03-04T05:05:33;95021.19;;;6.03;100.00
28626;BME280;18905;42.668;23.364;2023-03-04T05:07:58;95016.44;;;6.00;100.00
28626;BME280;18905;42.668;23.364;2023-03-04T05:10:24;95007.47;;;5.91;100.00
28626;BME280;18905;42.668;23.364;2023-03-04T05:12:49;95039.47;;;6.01;100.00
28626;BME280;18905;42.668;23.364;2023-03-04T05:15:15;95048.44;;;6.10;100.00
28626;BME280;18905;42.668;23.364;2023-03-04T05:17:40;95038.03;;;6.09;100.00
28626;BME280;18905;42.668;23.364;2023-03-04T05:20:06;95052.56;;;6.21;100.00
28626;BME280;18905;42.668;23.364;2023-03-04T05:22:31;95046.16;;;6.22;100.00
28626;BME280;18905;42.668;23.364;2023-03-04T05:24:57;95042.56;;;6.27;100.00
28626;BME280;18905;42.668;23.364;2023-03-04T05:27:22;95046.91;;;6.23;100.00
28626;BME280;18905;42.668;23.364;2023-03-04T05:29:48;95051.72;;;6.26;100.00
28626;BME280;18905;42.668;23.364;2023-03-04T05:32:13;95056.91;;;6.36;100.00
28626;BME280;18905;42.668;23.364;2023-03-04T05:34:38;95073.44;;;6.43;100.00
28626;BME280;18905;42.668;23.364;2023-03-04T05:37:04;95077.44;;;6.45;100.00
28626;BME280;18905;42.668;23.364;2023-03-04T05:39:29;95023.31;;;6.25;100.00
28626;BME280;18905;42.668;23.364;2023-03-04T05:41:55;95067.31;;;6.56;100.00
28626;BME280;18905;42.668;23.364;2023-03-04T05:44:20;95052.91;;;6.52;100.00
28626;BME280;18905;42.668;23.364;2023-03-04T05:46:45;95052.75;;;6.62;100.00
28626;BME280;18905;42.668;23.364;2023-03-04T05:49:11;95048.41;;;6.66;100.00
28626;BME280;18905;42.668;23.364;2023-03-04T05:51:36;95061.03;;;6.79;100.00
28626;BME280;18905;42.668;23.364;2023-03-04T05:54:02;95039.16;;;6.72;100.00
28626;BME280;18905;42.668;23.364;2023-03-04T05:56:27;95036.38;;;6.77;100.00
28626;BME280;18905;42.668;23.364;2023-03-04T05:58:56;95080.88;;;7.10;100.00
28626;BME280;18905;42.668;23.364;2023-03-04T06:01:22;95063.28;;;7.04;100.00
28626;BME280;18905;42.668;23.364;2023-03-04T06:03:48;95037.69;;;6.93;100.00
28626;BME280;18905;42.668;23.364;2023-03-04T06:06:13;95077.72;;;7.21;100.00
28626;BME280;18905;42.668;23.364;2023-03-04T06:08:39;95074.13;;;6.99;100.00
28626;BME280;18905;42.668;23.364;2023-03-04T06:11:04;95085.97;;;7.11;100.00
28626;BME280;18905;42.668;23.364;2023-03-04T06:13:30;95046.69;;;7.56;100.00
28626;BME280;18905;42.668;23.364;2023-03-04T06:15:57;95088.78;;;10.24;100.00
28626;BME280;18905;42.668;23.364;2023-03-04T06:18:23;95032.84;;;11.47;100.00
28626;BME280;18905;42.668;23.364;2023-03-04T06:20:49;94929.50;;;9.99;100.00
28626;BME280;18905;42.668;23.364;2023-03-04T06:23:15;94950.09;;;8.22;100.00
28626;BME280;18905;42.668;23.364;2023-03-04T06:25:41;94920.34;;;7.34;100.00
28626;BME280;18905;42.668;23.364;2023-03-04T06:28:07;95047.00;;;7.68;100.00
28626;BME280;18905;42.668;23.364;2023-03-04T06:30:32;94994.59;;;7.03;100.00
28626;BME280;18905;42.668;23.364;2023-03-04T06:32:58;95007.81;;;7.13;100.00
28626;BME280;18905;42.668;23.364;2023-03-04T06:35:23;94935.03;;;6.87;100.00
28626;BME280;18905;42.668;23.364;2023-03-04T06:37:49;94989.84;;;6.68;100.00
28626;BME280;18905;42.668;23.364;2023-03-04T06:40:15;94946.63;;;6.24;100.00
28626;BME280;18905;42.668;23.364;2023-03-04T06:42:41;94983.94;;;6.39;100.00
28626;BME280;18905;42.668;23.364;2023-03-04T06:45:07;94983.66;;;6.40;100.00
28626;BME280;18905;42.668;23.364;2023-03-04T06:47:36;95087.72;;;6.89;100.00
28626;BME280;18905;42.668;23.364;2023-03-04T06:50:04;94978.72;;;6.29;100.00
28626;BME280;18905;42.668;23.364;2023-03-04T06:52:29;94940.69;;;6.27;100.00
28626;BME280;18905;42.668;23.364;2023-03-04T06:54:55;94958.22;;;6.51;100.00
28626;BME280;18905;42.668;23.364;2023-03-04T06:57:21;94961.97;;;6.37;100.00
28626;BME280;18905;42.668;23.364;2023-03-04T06:59:46;94992.06;;;6.79;100.00
28626;BME280;18905;42.668;23.364;2023-03-04T07:02:15;94941.25;;;6.56;100.00
28626;BME280;18905;42.668;23.364;2023-03-04T07:04:41;94933.66;;;6.31;100.00
28626;BME280;18905;42.668;23.364;2023-03-04T07:07:06;95056.13;;;6.67;100.00
28626;BME280;18905;42.668;23.364;2023-03-04T07:09:32;94968.78;;;5.97;100.00
28626;BME280;18905;42.668;23.364;2023-03-04T07:11:58;94959.59;;;5.85;100.00
28626;BME280;18905;42.668;23.364;2023-03-04T07:14:24;95113.72;;;6.56;100.00
28626;BME280;18905;42.668;23.364;2023-03-04T07:16:52;94958.47;;;5.49;100.00
28626;BME280;18905;42.668;23.364;2023-03-04T07:19:18;95091.03;;;6.30;100.00
28626;BME280;18905;42.668;23.364;2023-03-04T07:21:43;94954.78;;;5.45;100.00
28626;BME280;18905;42.668;23.364;2023-03-04T07:24:09;95010.38;;;5.71;100.00
28626;BME280;18905;42.668;23.364;2023-03-04T07:26:34;95089.97;;;6.13;100.00
28626;BME280;18905;42.668;23.364;2023-03-04T07:29:02;94948.56;;;5.49;100.00
28626;BME280;18905;42.668;23.364;2023-03-04T07:31:30;94969.81;;;5.41;100.00
28626;BME280;18905;42.668;23.364;2023-03-04T07:33:57;94960.66;;;5.47;100.00
28626;BME280;18905;42.668;23.364;2023-03-04T07:36:23;95028.72;;;5.83;100.00
28626;BME280;18905;42.668;23.364;2023-03-04T07:38:50;94956.16;;;5.42;100.00
28626;BME280;18905;42.668;23.364;2023-03-04T07:41:17;94954.06;;;5.58;100.00
28626;BME280;18905;42.668;23.364;2023-03-04T07:46:18;95022.00;;;5.43;100.00
28626;BME280;18905;42.668;23.364;2023-03-04T07:48:45;95022.34;;;5.79;100.00
28626;BME280;18905;42.668;23.364;2023-03-04T07:51:14;94949.94;;;5.65;100.00
28626;BME280;18905;42.668;23.364;2023-03-04T07:53:42;94961.66;;;5.69;100.00
28626;BME280;18905;42.668;23.364;2023-03-04T07:56:11;94961.00;;;5.59;100.00
28626;BME280;18905;42.668;23.364;2023-03-04T07:58:38;94955.38;;;5.60;100.00
28626;BME280;18905;42.668;23.364;2023-03-04T08:03:36;95030.09;;;6.17;100.00
28626;BME280;18905;42.668;23.364;2023-03-04T08:06:06;94950.50;;;5.62;100.00
28626;BME280;18905;42.668;23.364;2023-03-04T08:08:33;94952.13;;;5.82;100.00
28626;BME280;18905;42.668;23.364;2023-03-04T08:10:58;94918.88;;;5.46;100.00
28626;BME280;18905;42.668;23.364;2023-03-04T08:13:24;94970.44;;;5.93;100.00
28626;BME280;18905;42.668;23.364;2023-03-04T08:15:50;94961.75;;;5.83;100.00
28626;BME280;18905;42.668;23.364;2023-03-04T08:18:15;94991.34;;;6.10;100.00
28626;BME280;18905;42.668;23.364;2023-03-04T08:20:41;94946.47;;;5.83;100.00
28626;BME280;18905;42.668;23.364;2023-03-04T08:23:10;95109.22;;;7.02;100.00
28626;BME280;18905;42.668;23.364;2023-03-04T08:25:40;95101.44;;;7.01;100.00
28626;BME280;18905;42.668;23.364;2023-03-04T08:28:07;95048.31;;;6.71;100.00
28626;BME280;18905;42.668;23.364;2023-03-04T08:35:43;94984.03;;;6.34;100.00
28626;BME280;18905;42.668;23.364;2023-03-04T08:38:08;95104.22;;;6.96;100.00
28626;BME280;18905;42.668;23.364;2023-03-04T08:40:34;94989.28;;;6.39;100.00
28626;BME280;18905;42.668;23.364;2023-03-04T08:43:00;94934.50;;;5.94;100.00
28626;BME280;18905;42.668;23.364;2023-03-04T08:45:26;94981.94;;;6.12;100.00
28626;BME280;18905;42.668;23.364;2023-03-04T08:47:52;94979.03;;;6.27;100.00
28626;BME280;18905;42.668;23.364;2023-03-04T08:50:18;94940.50;;;6.05;100.00
28626;BME280;18905;42.668;23.364;2023-03-04T08:52:43;94979.25;;;6.44;100.00
28626;BME280;18905;42.668;23.364;2023-03-04T08:55:14;94947.44;;;6.24;100.00
28626;BME280;18905;42.668;23.364;2023-03-04T08:57:40;94965.81;;;6.63;100.00
28626;BME280;18905;42.668;23.364;2023-03-04T09:05:16;95003.53;;;7.12;100.00
28626;BME280;18905;42.668;23.364;2023-03-04T09:07:42;94953.72;;;6.92;100.00
28626;BME280;18905;42.668;23.364;2023-03-04T09:10:08;94930.63;;;7.05;100.00
28626;BME280;18905;42.668;23.364;2023-03-04T09:12:34;94911.63;;;7.15;100.00
28626;BME280;18905;42.668;23.364;2023-03-04T09:14:59;95075.56;;;7.91;100.00
28626;BME280;18905;42.668;23.364;2023-03-04T09:17:25;94982.84;;;7.39;100.00
28626;BME280;18905;42.668;23.364;2023-03-04T09:19:51;94903.50;;;6.93;100.00
28626;BME280;18905;42.668;23.364;2023-03-04T09:22:17;95077.34;;;7.82;100.00
28626;BME280;18905;42.668;23.364;2023-03-04T09:24:43;94957.88;;;7.25;100.00
28626;BME280;18905;42.668;23.364;2023-03-04T09:27:09;95071.41;;;8.07;100.00
28626;BME280;18905;42.668;23.364;2023-03-04T09:29:34;94920.31;;;7.12;100.00
28626;BME280;18905;42.668;23.364;2023-03-04T09:32:00;94910.34;;;7.12;100.00
28626;BME280;18905;42.668;23.364;2023-03-04T09:34:26;94959.03;;;7.95;100.00
28626;BME280;18905;42.668;23.364;2023-03-04T09:36:51;94957.47;;;8.16;100.00
28626;BME280;18905;42.668;23.364;2023-03-04T09:39:17;95058.78;;;8.56;100.00
28626;BME280;18905;42.668;23.364;2023-03-04T09:41:46;94935.69;;;7.82;100.00
28626;BME280;18905;42.668;23.364;2023-03-04T09:44:20;94910.47;;;7.56;100.00
28626;BME280;18905;42.668;23.364;2023-03-04T09:46:47;94916.91;;;8.26;100.00
28626;BME280;18905;42.668;23.364;2023-03-04T09:49:14;94947.13;;;8.76;100.00
28626;BME280;18905;42.668;23.364;2023-03-04T09:51:47;94911.59;;;7.42;100.00
28626;BME280;18905;42.668;23.364;2023-03-04T10:02:42;94903.97;;;8.98;100.00
28626;BME280;18905;42.668;23.364;2023-03-04T10:05:20;94999.28;;;9.75;100.00
28626;BME280;18905;42.668;23.364;2023-03-04T10:07:57;94900.81;;;9.04;100.00
28626;BME280;18905;42.668;23.364;2023-03-04T10:10:31;94987.19;;;9.08;100.00
28626;BME280;18905;42.668;23.364;2023-03-04T10:12:59;94864.44;;;8.15;100.00
28626;BME280;18905;42.668;23.364;2023-03-04T10:15:51;95029.50;;;9.16;100.00
28626;BME280;18905;42.668;23.364;2023-03-04T10:18:21;95033.09;;;9.03;100.00
28626;BME280;18905;42.668;23.364;2023-03-04T10:21:10;94910.06;;;8.20;100.00
28626;BME280;18905;42.668;23.364;2023-03-04T10:23:40;94940.94;;;8.45;100.00
28626;BME280;18905;42.668;23.364;2023-03-04T10:26:13;94856.81;;;7.87;100.00
28626;BME280;18905;42.668;23.364;2023-03-04T10:28:40;94852.88;;;8.15;100.00
28626;BME280;18905;42.668;23.364;2023-03-04T10:31:21;95014.44;;;8.54;100.00
28626;BME280;18905;42.668;23.364;2023-03-04T10:33:53;94861.16;;;7.74;100.00
28626;BME280;18905;42.668;23.364;2023-03-04T10:39:00;94843.25;;;7.92;100.00
28626;BME280;18905;42.668;23.364;2023-03-04T10:41:29;94840.50;;;7.83;100.00
28626;BME280;18905;42.668;23.364;2023-03-04T10:44:02;95000.13;;;8.67;100.00
28626;BME280;18905;42.668;23.364;2023-03-04T10:46:29;94891.66;;;8.36;100.00
28626;BME280;18905;42.668;23.364;2023-03-04T10:48:55;94939.97;;;8.71;100.00
28626;BME280;18905;42.668;23.364;2023-03-04T10:51:24;94813.63;;;7.83;100.00
28626;BME280;18905;42.668;23.364;2023-03-04T10:53:55;94816.72;;;7.99;100.00
28626;BME280;18905;42.668;23.364;2023-03-04T10:56:55;94977.16;;;9.39;100.00
28626;BME280;18905;42.668;23.364;2023-03-04T11:05:18;94964.69;;;9.60;100.00
28626;BME280;18905;42.668;23.364;2023-03-04T11:07:49;94837.94;;;9.09;100.00
28626;BME280;18905;42.668;23.364;2023-03-04T11:10:24;94801.50;;;9.20;100.00
28626;BME280;18905;42.668;23.364;2023-03-04T11:13:01;94811.19;;;9.46;100.00
28626;BME280;18905;42.668;23.364;2023-03-04T11:15:50;94799.69;;;8.73;100.00
28626;BME280;18905;42.668;23.364;2023-03-04T11:20:54;94877.13;;;9.32;100.00
28626;BME280;18905;42.668;23.364;2023-03-04T11:23:32;94775.16;;;8.83;100.00
28626;BME280;18905;42.668;23.364;2023-03-04T11:26:04;94761.34;;;8.59;100.00
28626;BME280;18905;42.668;23.364;2023-03-04T11:31:07;94820.97;;;9.17;100.00
28626;BME280;18905;42.668;23.364;2023-03-04T11:33:50;94819.09;;;9.09;100.00
28626;BME280;18905;42.668;23.364;2023-03-04T11:36:34;94874.31;;;9.54;100.00
28626;BME280;18905;42.668;23.364;2023-03-04T11:39:16;94771.69;;;8.99;100.00
28626;BME280;18905;42.668;23.364;2023-03-04T11:41:56;94762.50;;;9.00;100.00
28626;BME280;18905;42.668;23.364;2023-03-04T11:44:23;94761.56;;;8.96;100.00
28626;BME280;18905;42.668;23.364;2023-03-04T12:00:53;94747.78;;;8.89;100.00
28626;BME280;18905;42.668;23.364;2023-03-04T12:14:29;94877.78;;;9.46;100.00
28626;BME280;18905;42.668;23.364;2023-03-04T12:22:44;94783.63;;;9.24;100.00
28626;BME280;18905;42.668;23.364;2023-03-04T12:25:26;94863.69;;;10.00;100.00
28626;BME280;18905;42.668;23.364;2023-03-04T12:36:54;94858.28;;;10.25;100.00
28626;BME280;18905;42.668;23.364;2023-03-04T12:39:32;94858.88;;;10.31;100.00
28626;BME280;18905;42.668;23.364;2023-03-04T12:44:31;94771.56;;;9.30;100.00
28626;BME280;18905;42.668;23.364;2023-03-04T12:47:08;94853.38;;;9.68;100.00
28626;BME280;18905;42.668;23.364;2023-03-04T12:50:03;94849.09;;;9.92;100.00
28626;BME280;18905;42.668;23.364;2023-03-04T12:53:13;94729.28;;;9.22;100.00
28626;BME280;18905;42.668;23.364;2023-03-04T12:55:40;94672.69;;;9.13;100.00
28626;BME280;18905;42.668;23.364;2023-03-04T12:58:26;94833.41;;;9.86;100.00
28626;BME280;18905;42.668;23.364;2023-03-04T13:01:04;94841.78;;;9.93;100.00
28626;BME280;18905;42.668;23.364;2023-03-04T13:03:40;94775.84;;;9.22;100.00
28626;BME280;18905;42.668;23.364;2023-03-04T13:06:28;94828.00;;;9.86;100.00
28626;BME280;18905;42.668;23.364;2023-03-04T13:09:01;94734.97;;;9.20;100.00
28626;BME280;18905;42.668;23.364;2023-03-04T13:14:06;94760.00;;;9.46;100.00
28626;BME280;18905;42.668;23.364;2023-03-04T13:16:49;94810.56;;;9.75;100.00
28626;BME280;18905;42.668;23.364;2023-03-04T13:19:47;94815.00;;;9.62;100.00
28626;BME280;18905;42.668;23.364;2023-03-04T13:25:01;94655.44;;;8.72;100.00
28626;BME280;18905;42.668;23.364;2023-03-04T13:27:48;94652.09;;;8.75;100.00
28626;BME280;18905;42.668;23.364;2023-03-04T13:41:23;94633.09;;;8.80;100.00
28626;BME280;18905;42.668;23.364;2023-03-04T13:43:50;94799.63;;;9.71;100.00
28626;BME280;18905;42.668;23.364;2023-03-04T13:51:18;94645.63;;;8.59;100.00
28626;BME280;18905;42.668;23.364;2023-03-04T13:54:05;94798.81;;;9.71;100.00
28626;BME280;18905;42.668;23.364;2023-03-04T13:56:35;94792.00;;;9.73;100.00
28626;BME280;18905;42.668;23.364;2023-03-04T14:01:57;94732.38;;;9.58;100.00
28626;BME280;18905;42.668;23.364;2023-03-04T14:04:34;94710.84;;;9.49;100.00
28626;BME280;18905;42.668;23.364;2023-03-04T14:07:03;94624.72;;;8.98;100.00
28626;BME280;18905;42.668;23.364;2023-03-04T14:10:19;94622.34;;;8.80;100.00
28626;BME280;18905;42.668;23.364;2023-03-04T14:12:50;94628.66;;;9.01;100.00
28626;BME280;18905;42.668;23.364;2023-03-04T14:15:28;94599.69;;;8.72;100.00
28626;BME280;18905;42.668;23.364;2023-03-04T14:17:57;94622.81;;;8.90;100.00
28626;BME280;18905;42.668;23.364;2023-03-04T14:20:32;94622.81;;;8.99;100.00
28626;BME280;18905;42.668;23.364;2023-03-04T14:23:00;94613.47;;;9.05;100.00
28626;BME280;18905;42.668;23.364;2023-03-04T14:25:32;94759.75;;;9.94;100.00
28626;BME280;18905;42.668;23.364;2023-03-04T14:28:24;94756.97;;;9.65;100.00
28626;BME280;18905;42.668;23.364;2023-03-04T14:30:51;94766.47;;;9.71;100.00
28626;BME280;18905;42.668;23.364;2023-03-04T14:33:30;94631.06;;;8.85;100.00
28626;BME280;18905;42.668;23.364;2023-03-04T14:36:00;94631.19;;;8.89;100.00
28626;BME280;18905;42.668;23.364;2023-03-04T14:38:30;94754.44;;;9.77;100.00
28626;BME280;18905;42.668;23.364;2023-03-04T14:43:47;94697.41;;;9.41;100.00
28626;BME280;18905;42.668;23.364;2023-03-04T14:46:16;94586.09;;;8.86;100.00
28626;BME280;18905;42.668;23.364;2023-03-04T14:48:48;94597.63;;;8.95;100.00
28626;BME280;18905;42.668;23.364;2023-03-04T14:51:38;94748.66;;;9.95;100.00